Terminal Aerodrome Forecast
Issued by NWS Topeka, KS

Home | Current Version | Previous Version | Text Only | Print | Product List | Glossary Off
Versions: 1 2 3 4 5 6 7 8 9 10 11 12 13 14

000
FTUS43 KTOP 140500
TAFTOP
TAF
KTOP 140520Z 1406/1506 33020G30KT 6SM BR OVC012
     FM141100 34018G25KT 3SM -SN OVC012
     FM141500 34015G22KT P6SM BKN035=

USA.gov is the U.S. government's official web portal to all federal, state and local government web resources and services.